Logo AVAMET
Benvolgut visitant, si us plau, ingressa Recuperar contrasenya

Elx Velarde

Dades diàries. Acumulats / Últims 30 dies disponibles

Data Temperatura (°C) Humitat rel. (%) Pressió rel. (hPa) Vent (km/h) Precipitació
Mínima Mitjana Màxima Amplitud
tèrmica
Mínima Mitjana Màxima Mínima Mitjana Màxima Predom. Mitjana Ràfega
màxima
Total
(mm)
Índex-n
Mínima Mitjana Màxima Mínima Mitjana Màxima n
0 a 1
P0 max
mm 5'
Dades mensuals acumulades fins l'últim dia disponible
07/2019 21,4 23,4 25,9 27,8 29,6 32,2 35,7 14,3 21 58 89 1.009 1.014 1.021   39,0 0,0
Dades anuals acumulades fins l'últim dia disponible
2019 3,2 13,9 25,9 18,3 13,1 22,7 35,7 32,5 13 58 99 995 1.018 1.034   6,2 54,0 140,0
Últims 30 dies disponibles
21-07-2019 25,1     29,9     34,8 9,7 21 45 68 1.016 1.019 1.021 39,0 0,0
20-07-2019 24,1     28,5     32,9 8,8 32 51 69 1.013 1.015 1.017 35,0 0,0
19-07-2019 22,1     27,0     31,9 9,8 23 50 76 1.014 1.015 1.016 26,0 0,0
18-07-2019 21,9     26,2     30,5 8,6 39 57 75 1.013 1.015 1.016 22,0 0,0
17-07-2019 22,5     26,6     30,7 8,2 39 56 72 1.012 1.014 1.015 27,0 0,0
16-07-2019 24,8     27,6     30,3 5,5 50 70 89 1.013 1.015 1.016 30,0 0,0
15-07-2019 23,5     28,1     32,8 9,3 44 66 87 1.010 1.012 1.013 26,0 0,0
14-07-2019 23,9     29,7     35,5 11,6 24 54 83 1.010 1.011 1.012 26,0 0,0
13-07-2019 25,9     29,8     33,6 7,7 32 58 83 1.011 1.013 1.015 34,0 0,0
12-07-2019 23,7     29,7     35,7 12,0 27 44 60 1.014 1.015 1.016 21,0 0,0
11-07-2019 22,1     27,4     32,8 10,7 31 51 70 1.014 1.015 1.016 23,0 0,0
10-07-2019 21,4     26,0     30,6 9,2 40 56 72 1.013 1.014 1.015 24,0 0,0
09-07-2019 21,9     27,2     32,5 10,6 25 56 86 1.011 1.013 1.014 27,0 0,0
08-07-2019 23,2     26,8     30,4 7,2 37 62 86 1.010 1.011 1.012 23,0 0,0
07-07-2019 25,7     30,6     35,5 9,8 37 58 78 1.009 1.012 1.015 24,0 0,0
06-07-2019 24,2     28,4     32,5 8,3 47 67 86 1.011 1.014 1.016 22,0 0,0
05-07-2019 22,9     27,4     31,8 8,9 55 72 88 1.014 1.016 1.017 23,0 0,0
04-07-2019 22,6     26,6     30,5 7,9 35 60 85 1.013 1.015 1.017 28,0 0,0
03-07-2019 22,1     26,6     31,2 9,1 33 59 84 1.013 1.014 1.015 31,0 0,0
02-07-2019 23,9     26,8     29,6 5,7 54 70 85 1.013 1.015 1.016 26,0 0,0
01-07-2019 23,1     26,6     30,2 7,1 46 64 81 1.014 1.016 1.017 27,0 0,0
30-06-2019 23,7     29,4     35,2 11,5 20 36 52 1.015 1.016 1.017 31,0 0,0
29-06-2019 23,5     29,6     35,7 12,2 24 40 56 1.013 1.015 1.016 24,0 0,0
28-06-2019 23,6     28,9     34,3 10,7 29 44 59 1.015 1.017 1.018 24,0 0,0
27-06-2019 24,4     29,1     33,7 9,3 31 54 76 1.016 1.017 1.018 41,0 0,0
26-06-2019 21,8     26,3     30,8 9,0 53 70 87 1.015 1.017 1.018 23,0 0,0
25-06-2019 20,8     24,5     28,2 7,4 57 72 86 1.014 1.016 1.017 25,0 0,0
24-06-2019 21,5     25,3     29,1 7,6 39 62 84 1.012 1.014 1.015 25,0 0,0
23-06-2019 19,6     24,1     28,7 9,1 38 63 87 1.012 1.014 1.015 27,0 0,0
22-06-2019 20,6     23,9     27,2 6,6 50 70 90 1.014 1.016 1.017 27,0 0,0
Últims 13 mesos disponibles
06/2019 15,3 19,4 24,4 23,9 23,8 28,4 35,7 20,4 36 59 75 1.009 1.015 1.022 SSE 0,2 49,0 0,3
05/2019 12,2 15,9 21,0 20,0 19,3 24,1 30,8 18,6 48 61 77 1.006 1.015 1.025 45,0 1,8
04/2019 8,1 12,6 16,2 16,6 15,1 20,5 28,2 20,1 39 61 85 1.002 1.013 1.025 50,0 121,6
03/2019 7,6 10,8 13,9 15,5 14,2 20,2 28,6 21,0 35 56 83 1.012 1.023 1.030 43,0 14,5
02/2019 5,9 9,1 12,9 13,9 14,7 18,7 25,7 19,8 32 56 73 999 1.025 1.033 54,0 0,3
01/2019 3,2 8,6 13,6 13,0 13,1 17,4 21,9 18,7 35 53 72 1.006 1.019 1.031 51,0 1,5
12/2018 7,3 10,6 14,2 15,1 14,8 19,5 26,6 19,3 45 61 78 1.011 1.025 1.031 53,0 7,6
11/2018 8,5 12,4 15,5 16,0 14,8 19,6 23,7 15,2 41 64 84 1.001 1.015 1.023 51,0 35,1
10/2018 9,7 16,2 20,1 20,2 14,8 24,2 28,3 18,6 37 64 76 1.000 1.014 1.025 50,0 31,8
09/2018 16,7 21,7 23,8 25,5 26,2 29,2 32,1 15,4 56 68 81 1.012 1.018 1.026 80,0 19,6
08/2018 21,0 24,0 27,7 28,0 28,5 32,0 36,6 15,6 41 64 81 1.013 1.016 1.020 42,0 5,8
07/2018 21,1 23,2 25,3 27,4 29,4 31,6 36,6 15,5 44 62 75 1.009 1.014 1.019 39,0 0,0
06/2018 15,4 19,7 22,7 24,1 23,9 28,4 32,3 16,9 49 60 74 1.009 1.015 1.021 38,0 13,8
Tots els anys disponibles
2018 3,8 15,6 27,7 19,8 10,6 23,9 36,6 32,8 35 61 85 994 1.016 1.033 80,0 210,4
Temperatura (°C)
Humitat relativa (%)
Velocitat del vent i ràfega màxima (km/h)
Direcció del vent (°)
Pressió (hPa)
Precipitació (mm)
Nota sobre les dades: s'avisa a l'usuari de la provisionalitat i no oficialitat d'aquestes dades
Logo AVAMET blanc
Web allotjada a Sollutia
Llicència de Creative CommonsLa web d'AVAMET i els seus continguts estan subjectes a una llicència de
Reconeixement - No Comercial - Compartir igual
Properes estacions: Altea - Club Nàutic d'Altea (Soci), Ares del Maestrat (Ajuntament Soci),      - - - - -      Últimes estacions: Catadau - Urb. Lloma Molina (Inforatge), Ontinyent - El Pilar (Soci), Asp - Poliesportiu (Soci) - - -